Time,TemperatureF,DewpointF,PressureIn,WindDirection,WindDirectionDegrees,WindSpeedMPH,WindSpeedGustMPH,Humidity,HourlyPrecipIn,Conditions,Clouds,dailyrainin,SolarRadiationWatts/m^2,SoftwareType,DateUTC
2013-10-06 00:23:00,63.0,55.0,-100.00,North,356,6.0,12.0,74,0.00,,,0.00,0.000000,,2013-10-06 05:23:00,
2013-10-06 00:34:00,63.0,55.0,-100.00,North,356,6.0,12.0,74,0.00,,,0.00,0.000000,,2013-10-06 05:34:00,
2013-10-06 00:43:00,63.0,55.0,-100.00,North,356,6.0,12.0,74,0.00,,,0.00,0.000000,,2013-10-06 05:43:00,
2013-10-06 00:52:00,63.0,55.0,-100.00,North,356,6.0,12.0,74,0.00,,,0.00,0.000000,,2013-10-06 05:52:00,
2013-10-06 01:02:00,63.0,55.0,-100.00,North,356,6.0,12.0,74,0.00,,,0.00,0.000000,,2013-10-06 06:02:00,
2013-10-06 01:42:00,61.0,52.0,-100.00,NNW,340,8.0,12.0,72,0.00,,,0.00,0.000000,,2013-10-06 06:42:00,
2013-10-06 01:52:00,61.0,52.0,-100.00,NNW,340,8.0,12.0,72,0.00,,,0.00,0.000000,,2013-10-06 06:52:00,
2013-10-06 02:02:00,61.0,52.0,-100.00,NNW,340,8.0,12.0,72,0.00,,,0.00,0.000000,,2013-10-06 07:02:00,
2013-10-06 02:43:00,60.0,50.0,-100.00,NNW,338,7.0,14.0,69,0.00,,,0.00,0.000000,,2013-10-06 07:43:00,
2013-10-06 02:52:00,60.0,50.0,-100.00,NNW,338,7.0,14.0,69,0.00,,,0.00,0.000000,,2013-10-06 07:52:00,
2013-10-06 03:02:00,60.0,50.0,-100.00,NNW,338,7.0,14.0,69,0.00,,,0.00,0.000000,,2013-10-06 08:02:00,
2013-10-06 03:22:00,59.0,49.0,-100.00,NNW,338,8.0,12.0,69,0.00,,,0.00,0.000000,,2013-10-06 08:22:00,
2013-10-06 03:32:00,59.0,49.0,-100.00,NNW,338,8.0,12.0,69,0.00,,,0.00,0.000000,,2013-10-06 08:32:00,
2013-10-06 03:42:00,59.0,49.0,-100.00,NNW,338,8.0,12.0,69,0.00,,,0.00,0.000000,,2013-10-06 08:42:00,
2013-10-06 03:53:00,59.0,49.0,-100.00,NNW,338,8.0,12.0,69,0.00,,,0.00,0.000000,,2013-10-06 08:53:00,
2013-10-06 04:01:00,59.0,49.0,-100.00,NNW,338,8.0,12.0,69,0.00,,,0.00,0.000000,,2013-10-06 09:01:00,
2013-10-06 04:03:00,58.0,47.0,-100.00,North,358,5.0,12.0,66,0.00,,,0.00,0.000000,,2013-10-06 09:03:00,
2013-10-06 04:43:00,58.0,47.0,-100.00,North,358,5.0,12.0,66,0.00,,,0.00,0.000000,,2013-10-06 09:43:00,
2013-10-06 04:53:00,58.0,47.0,-100.00,North,358,5.0,12.0,66,0.00,,,0.00,0.000000,,2013-10-06 09:53:00,
2013-10-06 06:42:00,56.0,47.0,-100.00,NW,324,4.0,8.0,71,-99.99,,,0.00,0.000000,,2013-10-06 11:42:00,
2013-10-06 06:52:00,56.0,47.0,-100.00,NW,324,4.0,8.0,71,-99.99,,,0.00,0.000000,,2013-10-06 11:52:00,
2013-10-06 07:02:00,56.0,47.0,-100.00,NW,324,4.0,8.0,71,-99.99,,,0.00,0.000000,,2013-10-06 12:02:00,
2013-10-06 07:42:00,56.0,47.0,-100.00,NNW,346,6.0,9.0,73,0.00,,,0.00,0.000000,,2013-10-06 12:42:00,
2013-10-06 07:52:00,56.0,47.0,-100.00,NNW,346,6.0,9.0,73,0.00,,,0.00,0.000000,,2013-10-06 12:52:00,
2013-10-06 08:02:00,56.0,47.0,-100.00,NNW,346,6.0,9.0,73,0.00,,,0.00,0.000000,,2013-10-06 13:02:00,
2013-10-06 08:42:00,58.0,49.0,-100.00,NW,325,4.0,11.0,72,0.00,,,0.00,29.000000,,2013-10-06 13:42:00,
2013-10-06 08:52:00,58.0,49.0,-100.00,NW,325,4.0,11.0,72,0.00,,,0.00,29.000000,,2013-10-06 13:52:00,
2013-10-06 09:02:00,58.0,49.0,-100.00,NW,325,4.0,11.0,72,0.00,,,0.00,29.000000,,2013-10-06 14:02:00,
2013-10-06 09:22:00,58.0,49.0,-100.00,North,4,5.0,11.0,73,0.00,,,0.00,79.000000,,2013-10-06 14:22:00,
2013-10-06 09:32:00,58.0,49.0,-100.00,North,4,5.0,11.0,73,0.00,,,0.00,79.000000,,2013-10-06 14:32:00,
2013-10-06 09:42:00,58.0,49.0,-100.00,North,4,5.0,11.0,73,0.00,,,0.00,79.000000,,2013-10-06 14:42:00,
2013-10-06 09:52:00,58.0,49.0,-100.00,North,4,5.0,11.0,73,0.00,,,0.00,79.000000,,2013-10-06 14:52:00,
2013-10-06 10:02:00,58.0,49.0,-100.00,North,4,5.0,11.0,73,0.00,,,0.00,79.000000,,2013-10-06 15:02:00,
2013-10-06 10:03:00,61.0,51.0,-100.00,NW,316,5.0,10.0,69,0.00,,,0.00,143.000000,,2013-10-06 15:03:00,
2013-10-06 10:44:00,61.0,51.0,-100.00,NW,316,5.0,10.0,69,0.00,,,0.00,143.000000,,2013-10-06 15:44:00,
2013-10-06 10:54:00,61.0,51.0,-100.00,NW,316,5.0,10.0,69,0.00,,,0.00,143.000000,,2013-10-06 15:54:00,
2013-10-06 11:43:00,64.0,49.0,-100.00,NNW,342,8.0,12.0,59,0.00,,,0.00,307.000000,,2013-10-06 16:43:00,
2013-10-06 11:53:00,64.0,49.0,-100.00,NNW,342,8.0,12.0,59,0.00,,,0.00,307.000000,,2013-10-06 16:53:00,
2013-10-06 12:02:00,64.0,49.0,-100.00,NNW,342,8.0,12.0,59,0.00,,,0.00,307.000000,,2013-10-06 17:02:00,
2013-10-06 12:42:00,70.0,48.0,-100.00,NNW,343,7.0,15.0,46,0.00,,,0.00,783.000000,,2013-10-06 17:42:00,
2013-10-06 12:52:00,70.0,48.0,-100.00,NNW,343,7.0,15.0,46,0.00,,,0.00,783.000000,,2013-10-06 17:52:00,
2013-10-06 13:02:00,70.0,48.0,-100.00,NNW,343,7.0,15.0,46,0.00,,,0.00,783.000000,,2013-10-06 18:02:00,
2013-10-06 13:43:00,74.0,42.0,-100.00,North,350,9.0,15.0,32,0.00,,,0.00,937.000000,,2013-10-06 18:43:00,
2013-10-06 13:52:00,74.0,42.0,-100.00,North,350,9.0,15.0,32,0.00,,,0.00,937.000000,,2013-10-06 18:52:00,
2013-10-06 14:01:00,74.0,42.0,-100.00,North,350,9.0,15.0,32,0.00,,,0.00,937.000000,,2013-10-06 19:01:00,
2013-10-06 14:42:00,76.0,43.0,-100.00,NW,319,10.0,20.0,31,0.00,,,0.00,957.000000,,2013-10-06 19:42:00,
2013-10-06 14:53:00,76.0,43.0,-100.00,NW,319,10.0,20.0,31,0.00,,,0.00,957.000000,,2013-10-06 19:53:00,
2013-10-06 15:02:00,76.0,43.0,-100.00,NW,319,10.0,20.0,31,0.00,,,0.00,957.000000,,2013-10-06 20:02:00,
2013-10-06 15:42:00,77.0,40.0,-100.00,NW,326,10.0,19.0,27,0.00,,,0.00,867.000000,,2013-10-06 20:42:00,
2013-10-06 15:52:00,77.0,40.0,-100.00,NW,326,10.0,19.0,27,0.00,,,0.00,867.000000,,2013-10-06 20:52:00,
2013-10-06 16:01:00,77.0,40.0,-100.00,NW,326,10.0,19.0,27,0.00,,,0.00,867.000000,,2013-10-06 21:01:00,
2013-10-06 16:03:00,79.0,39.0,-100.00,NNW,333,9.0,18.0,24,0.00,,,0.00,727.000000,,2013-10-06 21:03:00,
2013-10-06 16:44:00,79.0,39.0,-100.00,NNW,333,9.0,18.0,24,0.00,,,0.00,727.000000,,2013-10-06 21:44:00,
2013-10-06 16:55:00,79.0,39.0,-100.00,NNW,333,9.0,18.0,24,0.00,,,0.00,727.000000,,2013-10-06 21:55:00,
2013-10-06 17:03:00,78.0,34.0,-100.00,NW,326,10.0,19.0,20,0.00,,,0.00,533.000000,,2013-10-06 22:03:00,
2013-10-06 17:43:00,78.0,34.0,-100.00,NW,326,10.0,19.0,20,0.00,,,0.00,533.000000,,2013-10-06 22:43:00,
2013-10-06 17:54:00,78.0,34.0,-100.00,NW,326,10.0,19.0,20,0.00,,,0.00,533.000000,,2013-10-06 22:54:00,
2013-10-06 18:42:00,75.0,35.0,-100.00,NW,325,8.0,17.0,23,0.00,,,0.00,299.000000,,2013-10-06 23:42:00,
2013-10-06 18:53:00,75.0,35.0,-100.00,NW,325,8.0,17.0,23,0.00,,,0.00,299.000000,,2013-10-06 23:53:00,
2013-10-06 19:02:00,75.0,35.0,-100.00,NW,325,8.0,17.0,23,0.00,,,0.00,299.000000,,2013-10-07 00:02:00,
2013-10-06 19:22:00,69.0,38.0,-100.00,WNW,303,3.0,11.0,32,0.00,,,0.00,37.000000,,2013-10-07 00:22:00,
2013-10-06 19:32:00,69.0,38.0,-100.00,WNW,303,3.0,11.0,32,0.00,,,0.00,37.000000,,2013-10-07 00:32:00,
2013-10-06 19:42:00,69.0,38.0,-100.00,WNW,303,3.0,11.0,32,0.00,,,0.00,37.000000,,2013-10-07 00:42:00,
2013-10-06 19:52:00,69.0,38.0,-100.00,WNW,303,3.0,11.0,32,0.00,,,0.00,37.000000,,2013-10-07 00:52:00,
2013-10-06 20:02:00,69.0,38.0,-100.00,WNW,303,3.0,11.0,32,0.00,,,0.00,37.000000,,2013-10-07 01:02:00,
2013-10-06 20:42:00,64.0,43.0,-100.00,NW,319,2.0,4.0,46,0.00,,,0.00,0.000000,,2013-10-07 01:42:00,
2013-10-06 20:53:00,64.0,43.0,-100.00,NW,319,2.0,4.0,46,0.00,,,0.00,0.000000,,2013-10-07 01:53:00,
2013-10-06 21:02:00,64.0,43.0,-100.00,NW,319,2.0,4.0,46,0.00,,,0.00,0.000000,,2013-10-07 02:02:00,
2013-10-06 21:42:00,59.0,48.0,-100.00,West,263,1.0,3.0,66,0.00,,,0.00,0.000000,,2013-10-07 02:42:00,
2013-10-06 21:53:00,59.0,48.0,-100.00,West,263,1.0,3.0,66,0.00,,,0.00,0.000000,,2013-10-07 02:53:00,
2013-10-06 22:02:00,59.0,48.0,-100.00,West,263,1.0,3.0,66,0.00,,,0.00,0.000000,,2013-10-07 03:02:00,
2013-10-06 22:03:00,56.0,47.0,-100.00,SSW,202,1.0,2.0,73,0.00,,,0.00,0.000000,,2013-10-07 03:03:00,
2013-10-06 22:44:00,56.0,47.0,-100.00,SSW,202,1.0,2.0,73,0.00,,,0.00,0.000000,,2013-10-07 03:44:00,
2013-10-06 22:54:00,56.0,47.0,-100.00,SSW,202,1.0,2.0,73,0.00,,,0.00,0.000000,,2013-10-07 03:54:00,
2013-10-06 23:03:00,53.0,49.0,-100.00,NE,50,0.0,0.0,85,0.00,,,0.00,0.000000,,2013-10-07 04:03:00,
2013-10-06 23:25:00,53.0,49.0,-100.00,NE,50,0.0,0.0,85,0.00,,,0.00,0.000000,,2013-10-07 04:25:00,
2013-10-06 23:34:00,53.0,49.0,-100.00,NE,50,0.0,0.0,85,0.00,,,0.00,0.000000,,2013-10-07 04:34:00,
2013-10-06 23:44:00,53.0,49.0,-100.00,NE,50,0.0,0.0,85,0.00,,,0.00,0.000000,,2013-10-07 04:44:00,
2013-10-06 23:53:00,53.0,49.0,-100.00,NE,50,0.0,0.0,85,0.00,,,0.00,0.000000,,2013-10-07 04:53:00,